Have a Safe July 4th! 

Flight Track Log - Related Links

Times and Time Zones

All times are in EDT time to prevent confusion due to time zone crossing. See the UAL906 flight status page for this flight to view local times or setup timezone preferences in your user account.

Time Position Orientation Groundspeed Altitude Reporting Facility
EDT Latitude Longitude Course Direction KTS MPH feet Rate Location/Type
Thu 06:50:03 AM 50.0460 8.5690 205° Southwest 11 13  Level FlightAware ADS-B
Thu 06:55:01 AM 50.0450 8.5690 180° South 24 28 36 Level FlightAware ADS-B
Thu 06:55:29 AM 50.0440 8.5680 213° Southwest 26 30 55 Level FlightAware ADS-B
Thu 06:55:55 AM 50.0430 8.5680 180° South 29 33 58 Level FlightAware ADS-B
Thu 06:56:09 AM 50.0420 8.5670 213° Southwest 30 35 61 Level FlightAware ADS-B
Thu 06:56:37 AM 50.0420 8.5650 270° West 16 18 63 Level FlightAware ADS-B
Thu 06:57:05 AM 50.0410 8.5620 243° Southwest 27 31 67 Level FlightAware ADS-B
Thu 06:57:25 AM 50.0410 8.5610 270° West 29 33 71 Level FlightAware ADS-B
Thu 06:57:55 AM 50.0400 8.5580 243° Southwest 33 38 74 Level FlightAware ADS-B
Thu 06:58:07 AM 50.0400 8.5570 270° West 31 36 80 Level FlightAware ADS-B
Thu 06:58:39 AM 50.0390 8.5540 243° Southwest 28 32 83 Level FlightAware ADS-B
Thu 06:59:03 AM 50.0390 8.5520 270° West 32 37 91 Level FlightAware ADS-B
Thu 06:59:26 AM 50.0380 8.5500 232° Southwest 31 36 98 Level FlightAware ADS-B
Thu 06:59:38 AM 50.0380 8.5490 270° West 31 36 106 Level FlightAware ADS-B
Thu 07:00:06 AM 50.0370 8.5470 232° Southwest 17 20 111 Level FlightAware ADS-B
Thu 07:00:22 AM 50.0370 8.5440 270° West 20 23 124 Level FlightAware ADS-B
Thu 07:00:52 AM 50.0360 8.5410 243° Southwest 18 21 133 Level FlightAware ADS-B
Thu 07:01:14 AM 50.0350 8.5380 243° Southwest 19 22 153 Level FlightAware ADS-B
Thu 07:01:28 AM 50.0350 8.5360 270° West 19 22 172 Level FlightAware ADS-B
Thu 07:01:58 AM 50.0340 8.5330 243° Southwest 24 28 188 Level FlightAware ADS-B
Thu 07:02:24 AM 50.0330 8.5340 147° Southeast 29 33 231 Level FlightAware ADS-B
Thu 07:02:40 AM 50.0330 8.5350 90° East 17 20 288 Level FlightAware ADS-B
Thu 07:03:12 AM 50.0330 8.5370 90° East 22 25 341 Level FlightAware ADS-B
Thu 07:03:36 AM 50.0360 8.5480 67° East 120 138 536 Level FlightAware ADS-B
Thu 07:04:08 AM 50.0440 8.5830 70° East 181 208 500 1,607 Climbing FlightAware ADS-B
Thu 07:04:32 AM 50.0510 8.6130 70° East 183 211 1,500 2,500 Climbing FlightAware ADS-B
Thu 07:04:44 AM 50.0540 8.6270 72° East 182 209 2,000 2,045 Climbing FlightAware ADS-B
Thu 07:05:16 AM 50.0630 8.6680 71° East 185 213 3,000 1,600 Climbing FlightAware ADS-B
Thu 07:05:44 AM 50.0720 8.7040 69° East 199 229 3,600 1,091 Climbing FlightAware ADS-B
Thu 07:06:00 AM 50.0840 8.7220 44° Northeast 220 253 3,800 1,227 Climbing FlightAware ADS-B
Thu 07:06:28 AM 50.1110 8.7390 22° Northeast 242 278 4,500 1,393 Climbing FlightAware ADS-B
Thu 07:06:56 AM 50.1400 8.7570 22° Northeast 265 305 5,100 2,036 Climbing FlightAware ADS-B
Thu 07:07:24 AM 50.1740 8.7790 23° Northeast 266 306 6,400 2,400 Climbing FlightAware ADS-B
Thu 07:08:16 AM 50.2340 8.7550 346° North 296 341 8,300 2,175 Climbing FlightAware ADS-B
Thu 07:08:44 AM 50.2550 8.7030 302° West 301 346 9,300 2,000 Climbing FlightAware ADS-B
Thu 07:09:28 AM 50.2840 8.6200 299° West 313 360 10,700 1,364 Climbing FlightAware ADS-B
Thu 07:10:12 AM 50.3190 8.5290 301° West 355 409 11,300 1,143 Climbing FlightAware ADS-B
Thu 07:10:52 AM 50.3550 8.4380 302° West 375 432 12,300 1,615 Climbing FlightAware ADS-B
Thu 07:11:30 AM 50.3890 8.3500 301° West 386 444 13,400 1,829 Climbing FlightAware ADS-B
Thu 07:12:14 AM 50.4310 8.2430 302° West 394 453 14,800 1,909 Climbing FlightAware ADS-B
Thu 07:12:58 AM 50.4740 8.1350 302° West 401 461 16,200 1,929 Climbing FlightAware ADS-B
Thu 07:13:38 AM 50.5140 8.0360 302° West 403 464 17,500 1,643 Climbing FlightAware ADS-B
Thu 07:14:22 AM 50.5620 7.9350 307° West 412 474 18,500 1,500 Climbing FlightAware ADS-B
Thu 07:15:02 AM 50.6120 7.8400 310° West 416 479 19,600 1,658 Climbing FlightAware ADS-B
Thu 07:15:38 AM 50.6550 7.7530 308° West 425 489 20,600 1,615 Climbing FlightAware ADS-B
Thu 07:16:20 AM 50.7060 7.6480 308° West 435 501 21,700 1,643 Climbing FlightAware ADS-B
Thu 07:17:02 AM 50.7580 7.5420 308° West 440 506 22,900 1,535 Climbing FlightAware ADS-B
Thu 07:17:46 AM 50.8120 7.4290 307° West 448 516 23,900 1,286 Climbing FlightAware ADS-B
Thu 07:18:26 AM 50.8620 7.3250 307° West 453 521 24,700 1,214 Climbing FlightAware ADS-B
Thu 07:19:10 AM 50.9110 7.2040 303° West 459 528 25,600 1,214 Climbing FlightAware ADS-B
Thu 07:19:50 AM 50.9400 7.0740 290° West 463 533 26,400 975 Climbing FlightAware ADS-B
Thu 07:22:00 AM 51.0829 6.7155 302° West  Level Estimated
Thu 07:23:00 AM 51.1484 6.5493 302° West  Level Estimated
Thu 07:24:00 AM 51.2138 6.3826 302° West  Level Estimated
Thu 07:24:24 AM 51.1110 6.2090 302° West 489 563 30,700  Level FlightAware ADS-B
Thu 07:25:01 AM 51.1440 6.0360 287° West 481 554 31,900 1,481 Climbing FlightAware ADS-B
Thu 07:25:41 AM 51.1620 5.8980 282° West 482 555 32,600 900 Climbing FlightAware ADS-B
Thu 07:26:21 AM 51.1760 5.7560 279° West 484 557 33,100 706 Climbing FlightAware ADS-B
Thu 07:27:06 AM 51.1910 5.6010 279° West 485 558 33,600 730 Climbing FlightAware ADS-B
Thu 07:27:35 AM 51.2010 5.4910 278° West 487 560 34,000 324 Climbing FlightAware ADS-B
Thu 07:28:20 AM 51.2150 5.3310 278° West 486 559 34,000  Level FlightAware ADS-B
Thu 07:29:00 AM 51.2270 5.1950 278° West 489 563 34,000  Level FlightAware ADS-B
Thu 07:29:46 AM 51.2420 5.0280 278° West 492 566 34,000  Level FlightAware ADS-B
Thu 07:30:21 AM 51.2520 4.9090 278° West 493 567 34,000  Level FlightAware ADS-B
Thu 07:31:06 AM 51.2660 4.7490 278° West 496 571 34,000  Level FlightAware ADS-B
Thu 07:31:38 AM 51.2761 4.6199 278° West 480 552 34,000  Level FlightAware UK
Thu 07:31:46 AM 51.2790 4.5950 278° West 498 573 34,000 -143 Level FlightAware ADS-B
Thu 07:32:20 AM 51.2913 4.4690 278° West 476 548 33,900  Descending FlightAware UK
Thu 07:32:28 AM 51.2920 4.4370 278° West 499 574 34,000 120 Climbing FlightAware ADS-B
Thu 07:33:10 AM 51.3050 4.2840 278° West 502 578 34,000  Level FlightAware ADS-B
Thu 07:33:50 AM 51.3160 4.1380 277° West 503 579 34,000  Level FlightAware ADS-B
Thu 07:34:30 AM 51.3280 3.9910 277° West 504 580 34,000  Level FlightAware ADS-B
Thu 07:35:14 AM 51.3410 3.8260 277° West 505 581 34,000  Level FlightAware ADS-B
Thu 07:36:11 AM 51.3570 3.6150 277° West 506 582 34,000 -63 Level FlightAware ADS-B
Thu 07:36:49 AM 51.3672 3.4730 277° West 478 550 33,900  Descending FlightAware UK
Thu 07:36:51 AM 51.3680 3.4680 277° West 506 582 34,000 143 Climbing FlightAware ADS-B
Thu 07:37:31 AM 51.3810 3.3170 278° West 507 583 34,000  Level FlightAware ADS-B
Thu 07:38:29 AM 51.4030 3.1060 280° West 508 585 34,000  Level FlightAware ADS-B
Thu 07:39:11 AM 51.4170 2.9510 278° West 509 586 34,000  Level FlightAware ADS-B
Thu 07:40:19 AM 51.4411 2.6940 278° West 482 555 34,000  Level FlightAware UK
Thu 07:41:01 AM 51.4510 2.5830 278° West 510 587 34,000  Level FlightAware ADS-B
Thu 07:41:31 AM 51.4654 2.4250 278° West 482 555 34,000  Level FlightAware UK
Thu 07:42:07 AM 51.4781 2.2871 278° West 480 552 34,000  Level FlightAware UK
Thu 07:42:25 AM 51.4833 2.2225 278° West 511 588 34,000  Level FlightAware ADS-B
Thu 07:43:15 AM 51.4996 2.0354 278° West 512 589 34,000  Level FlightAware ADS-B
Thu 07:43:45 AM 51.5092 1.9222 278° West 512 589 34,000  Level FlightAware ADS-B
Thu 07:44:17 AM 51.5193 1.8034 278° West 511 588 34,000  Level FlightAware ADS-B
Thu 07:44:51 AM 51.5298 1.6783 278° West 510 587 34,000  Level FlightAware ADS-B
Thu 07:45:36 AM 51.5430 1.5160 278° West 510 587 34,000  Level FlightAware ADS-B
Thu 07:45:37 AM 51.5444 1.5035 278° West 478 550 34,000  Level FlightAware UK
Thu 07:45:58 AM 51.5502 1.4271 277° West 511 588 34,000  Level FlightAware ADS-B
Thu 07:46:29 AM 51.5598 1.3073 277° West 511 588 34,000  Level FlightAware ADS-B
Thu 07:47:02 AM 51.5695 1.1852 277° West 512 589 34,000  Level FlightAware ADS-B
Thu 07:47:32 AM 51.5741 1.0695 274° West 514 592 34,000  Level FlightAware ADS-B
Thu 07:48:03 AM 51.5739 0.9543 270° West 516 594 34,000  Level FlightAware ADS-B
Thu 07:48:33 AM 51.5715 0.8392 268° West 516 594 34,000  Level FlightAware ADS-B
Thu 07:49:05 AM 51.5682 0.7160 268° West 518 596 34,000  Level FlightAware ADS-B
Thu 07:49:36 AM 51.5646 0.5966 267° West 518 596 34,000  Level FlightAware ADS-B
Thu 07:50:07 AM 51.5607 0.4774 267° West 519 597 34,000  Level FlightAware ADS-B
Thu 07:50:47 AM 51.5555 0.3236 267° West 519 597 34,000  Level FlightAware ADS-B
Thu 07:51:18 AM 51.5513 0.2047 267° West 519 597 34,000  Level FlightAware ADS-B
Thu 07:51:49 AM 51.5471 0.0893 267° West 519 597 34,000  Level FlightAware ADS-B
Thu 07:52:19 AM 51.5427 -0.0266 267° West 519 597 34,000  Level FlightAware ADS-B
Thu 07:52:49 AM 51.5383 -0.1419 267° West 519 597 34,000  Level FlightAware ADS-B
Thu 07:53:19 AM 51.5337 -0.2577 266° West 519 597 34,000  Level FlightAware ADS-B
Thu 07:53:49 AM 51.5290 -0.3738 266° West 519 597 34,000  Level FlightAware ADS-B
Thu 07:54:20 AM 51.5242 -0.4926 266° West 520 598 34,000  Level FlightAware ADS-B
Thu 07:54:51 AM 51.5191 -0.6112 266° West 519 597 34,000  Level FlightAware ADS-B
Thu 07:55:21 AM 51.5141 -0.7274 266° West 520 598 34,000  Level FlightAware ADS-B
Thu 07:55:52 AM 51.5089 -0.8453 266° West 520 598 34,000  Level FlightAware ADS-B
Thu 07:56:23 AM 51.5036 -0.9632 266° West 520 598 34,000  Level FlightAware ADS-B
Thu 07:56:54 AM 51.4980 -1.0823 266° West 521 600 34,000  Level FlightAware ADS-B
Thu 07:57:15 AM 51.4952 -1.1635 267° West 521 600 34,000  Level FlightAware ADS-B
Thu 07:57:36 AM 51.4972 -1.2434 272° West 519 597 34,000  Level FlightAware ADS-B
Thu 07:57:58 AM 51.5047 -1.3263 278° West 517 595 34,000  Level FlightAware ADS-B
Thu 07:58:28 AM 51.5195 -1.4389 282° West 517 595 34,000  Level FlightAware ADS-B
Thu 07:58:59 AM 51.5373 -1.5525 284° West 515 593 34,000  Level FlightAware ADS-B
Thu 07:59:34 AM 51.5593 -1.6835 285° West 515 593 34,000  Level FlightAware ADS-B
Thu 07:59:58 AM 51.5738 -1.7713 285° West 515 593 34,000  Level FlightAware ADS-B
Thu 08:00:29 AM 51.5901 -1.8871 283° West 515 593 34,000  Level FlightAware ADS-B
Thu 08:01:01 AM 51.6065 -2.0072 282° West 515 593 34,000  Level FlightAware ADS-B
Thu 08:01:33 AM 51.6227 -2.1241 283° West 514 592 34,000  Level FlightAware ADS-B
Thu 08:02:03 AM 51.6385 -2.2371 283° West 514 592 34,000  Level FlightAware ADS-B
Thu 08:02:34 AM 51.6544 -2.3510 283° West 512 589 34,000  Level FlightAware ADS-B
Thu 08:03:07 AM 51.6714 -2.4732 283° West 511 588 34,000  Level FlightAware ADS-B
Thu 08:03:43 AM 51.6898 -2.6064 283° West 510 587 34,000  Level FlightAware ADS-B
Thu 08:04:23 AM 51.7103 -2.7569 282° West 510 587 34,000  Level FlightAware ADS-B
Thu 08:04:54 AM 51.7250 -2.8680 282° West 507 583 34,000  Level FlightAware ADS-B
Thu 08:05:35 AM 51.7450 -3.0130 283° West 507 583 34,000  Level FlightAware ADS-B
Thu 08:06:14 AM 51.7640 -3.1610 282° West 506 582 34,000  Level FlightAware ADS-B
Thu 08:06:55 AM 51.7840 -3.3110 282° West 505 581 34,000  Level FlightAware ADS-B
Thu 08:07:41 AM 51.8050 -3.4770 282° West 505 581 34,000  Level FlightAware ADS-B
Thu 08:08:21 AM 51.8240 -3.6210 282° West 505 581 34,000  Level FlightAware ADS-B
Thu 08:09:06 AM 51.8450 -3.7930 281° West 505 581 34,000  Level FlightAware ADS-B
Thu 08:09:42 AM 51.8620 -3.9290 281° West 504 580 34,000  Level FlightAware ADS-B
Thu 08:10:22 AM 51.8810 -4.0770 282° West 504 580 34,000  Level FlightAware ADS-B
Thu 08:10:57 AM 51.8968 -4.2099 282° West 480 552 34,000  Level FlightAware UK
Thu 08:11:02 AM 51.8990 -4.2250 282° West 504 580 34,000  Level FlightAware ADS-B
Thu 08:11:38 AM 51.9090 -4.3100 282° West 504 580 34,000  Level FlightAware ADS-B
Thu 08:11:39 AM 51.9157 -4.3650 282° West 480 552 34,000  Level FlightAware UK
Thu 08:12:21 AM 51.9340 -4.5180 281° West 504 580 34,000  Level FlightAware ADS-B
Thu 08:13:03 AM 51.9527 -4.6750 281° West 482 555 34,000  Level FlightAware UK
Thu 08:13:05 AM 51.9530 -4.6800 281° West 504 580 34,000  Level FlightAware ADS-B
Thu 08:13:45 AM 51.9790 -4.8240 286° West 500 575 34,000  Level FlightAware ADS-B
Thu 08:14:30 AM 52.0230 -4.9740 296° West 498 573 34,000  Level FlightAware ADS-B
Thu 08:15:09 AM 52.0642 -5.1066 296° West 480 552 34,000  Level FlightAware UK
Thu 08:15:09 AM 52.0640 -5.1050 296° West 498 573 34,000  Level FlightAware ADS-B
Thu 08:15:53 AM 52.1090 -5.2520 297° West 497 572 34,000  Level FlightAware ADS-B
Thu 08:16:33 AM 52.1500 -5.3850 297° West 497 572 34,000  Level FlightAware ADS-B
Thu 08:17:11 AM 52.1910 -5.5140 297° West 496 571 34,000  Level FlightAware ADS-B
Thu 08:17:15 AM 52.1944 -5.5264 297° West 480 552 34,000  Level FlightAware UK
Thu 08:17:45 AM 52.2253 -5.6265 297° West 480 552 34,000  Level FlightAware UK
Thu 08:17:54 AM 52.2340 -5.6550 297° West 496 571 34,000  Level FlightAware ADS-B
Thu 08:18:38 AM 52.2830 -5.7960 300° West 495 570 34,000  Level FlightAware ADS-B
Thu 08:19:15 AM 52.3264 -5.9187 300° West 482 555 34,000  Level FlightAware UK
Thu 08:19:23 AM 52.3350 -5.9430 300° West 495 570 34,000  Level FlightAware ADS-B
Thu 08:20:21 AM 52.4015 -6.1315 300° West 480 552 34,000  Level FlightAware UK
Thu 08:20:45 AM 52.4110 -6.1590 300° West 34,000  Level FlightAware ADS-B
Thu 08:20:51 AM 52.4355 -6.2290 300° West 480 552 34,000  Level FlightAware UK
Thu 08:21:21 AM 52.4695 -6.3266 300° West 482 555 34,000  Level FlightAware UK
Thu 08:21:42 AM 52.4930 -6.3950 300° West 495 570 34,000  Level FlightAware ADS-B
Thu 08:22:21 AM 52.5373 -6.5224 300° West 484 557 34,000  Level FlightAware UK
Thu 08:22:24 AM 52.5400 -6.5320 300° West 495 570 34,000  Level FlightAware ADS-B
Thu 08:23:08 AM 52.5890 -6.6750 299° West 494 568 34,000  Level FlightAware ADS-B
Thu 08:23:51 AM 52.6381 -6.8163 299° West 484 557 34,000  Level FlightAware UK
Thu 08:24:21 AM 52.6714 -6.9142 299° West 484 557 34,000  Level FlightAware UK
Thu 08:24:35 AM 52.6700 -6.9100 299° West 492 566 34,000  Level FlightAware ADS-B
Thu 08:25:21 AM 52.7377 -7.1095 299° West 482 555 34,000  Level FlightAware UK
Thu 08:25:26 AM 52.7310 -7.0910 299° West 490 564 34,000  Level FlightAware ADS-B
Thu 08:26:07 AM 52.7880 -7.2600 299° West 490 564 34,000  Level FlightAware ADS-B
Thu 08:26:46 AM 52.8270 -7.3770 299° West 490 564 34,000  Level FlightAware ADS-B
Thu 08:27:24 AM 52.8710 -7.5110 299° West 490 564 34,000  Level FlightAware ADS-B
Thu 08:27:26 AM 52.8750 -7.5209 299° West 480 552 34,000 -188 Level FlightAware UK
Thu 08:27:56 AM 52.9077 -7.6194 299° West 480 552 33,900  Descending FlightAware UK
Thu 08:28:07 AM 52.9180 -7.6530 299° West 489 563 34,000 638 Climbing FlightAware ADS-B
Thu 08:28:43 AM 52.9580 -7.7730 299° West 488 562 34,400 835 Climbing FlightAware ADS-B
Thu 08:29:26 AM 53.0045 -7.9150 299° West 478 550 35,100 904 Climbing FlightAware UK
Thu 08:29:56 AM 53.0364 -8.0130 298° West 476 548 35,500 800 Climbing FlightAware UK
Thu 08:29:56 AM 53.0340 -8.0050 298° West 484 557 35,500 600 Level FlightAware ADS-B
Thu 08:30:26 AM 53.0682 -8.1106 298° West 476 548 35,800 585 Climbing FlightAware UK
Thu 08:30:37 AM 53.0760 -8.1360 298° West 483 556 35,900 218 Climbing FlightAware ADS-B
Thu 08:31:21 AM 53.1240 -8.2840 298° West 484 557 36,000  Climbing FlightAware ADS-B
Thu 08:31:56 AM 53.1625 -8.4045 298° West 476 548 35,900  Descending FlightAware UK
Thu 08:32:01 AM 53.1650 -8.4140 298° West 484 557 36,000  Climbing FlightAware ADS-B
Thu 08:32:32 AM 53.1999 -8.5219 298° West 476 548 35,900  Descending FlightAware UK
Thu 08:32:41 AM 53.2060 -8.5430 298° West 483 556 36,000 122 Climbing FlightAware ADS-B
Thu 08:33:21 AM 53.2490 -8.6770 298° West 483 556 36,000  Level FlightAware ADS-B
Thu 08:33:56 AM 53.2840 -8.7890 298° West 482 555 36,000 -146 Level FlightAware ADS-B
Thu 08:34:02 AM 53.2936 -8.8183 298° West 476 548 35,900  Descending FlightAware UK
Thu 08:34:32 AM 53.3246 -8.9170 298° West 478 550 36,000 146 Climbing FlightAware UK
Thu 08:34:43 AM 53.3340 -8.9490 298° West 481 554 36,000  Level FlightAware ADS-B
Thu 08:35:39 AM 53.3900 -9.1290 298° West 476 548 36,000  Level FlightAware ADS-B
Thu 08:36:18 AM 53.4310 -9.2590 298° West 475 547 36,000  Level FlightAware ADS-B
Thu 08:37:03 AM 53.4770 -9.4110 297° West 476 548 36,000  Level FlightAware ADS-B
Thu 08:37:40 AM 53.5120 -9.5240 298° West 476 548 36,000  Level FlightAware ADS-B
Thu 08:38:18 AM 53.5530 -9.6580 297° West 476 548 36,000  Level FlightAware ADS-B
Thu 08:39:03 AM 53.5970 -9.8060 297° West 476 548 36,000  Level FlightAware ADS-B
Thu 08:39:39 AM 53.6320 -9.9210 297° West 476 548 36,000  Level FlightAware ADS-B
Thu 08:41:05 AM 53.7060 -10.1680 297° West 478 550 36,000  Level FlightAware ADS-B
Thu 08:41:40 AM 53.7410 -10.2860 297° West 479 551 36,000  Level FlightAware ADS-B
Thu 08:42:29 AM 53.8000 -10.4890 296° West 480 552 36,000  Level FlightAware ADS-B
Thu 08:44:29 AM 53.9040 -10.8450 296° West 484 557 36,000  Level FlightAware ADS-B
Thu 08:45:13 AM 53.9630 -11.0510 296° West 490 564 36,000  Level FlightAware ADS-B
Thu 08:45:53 AM 54.0020 -11.1870 296° West 491 565 36,000  Level FlightAware ADS-B
Thu 08:46:40 AM 54.0470 -11.3460 296° West 492 566 36,000  Level FlightAware ADS-B
Thu 08:47:18 AM 54.0860 -11.4840 296° West 493 567 36,000  Level FlightAware ADS-B
Thu 08:47:59 AM 54.1260 -11.6280 295° West 492 566 36,000  Level FlightAware ADS-B
Thu 08:48:44 AM 54.1700 -11.7880 295° West 493 567 36,000  Level FlightAware ADS-B
Thu 08:49:29 AM 54.2140 -11.9440 296° West 494 568 36,000  Level FlightAware ADS-B
Thu 08:50:09 AM 54.2530 -12.0890 295° West 495 570 36,000  Level FlightAware ADS-B
Thu 08:50:49 AM 54.2900 -12.2230 295° West 495 570 36,000  Level FlightAware ADS-B
Thu 08:51:44 AM 54.3430 -12.4200 295° West 495 570 36,000  Level FlightAware ADS-B
Thu 08:52:29 AM 54.3870 -12.5840 295° West 495 570 36,000  Level FlightAware ADS-B
Thu 08:53:11 AM 54.4260 -12.7290 295° West 491 565 36,000  Level FlightAware ADS-B
Thu 08:53:50 AM 54.4640 -12.8720 295° West 490 564 36,000  Level FlightAware ADS-B
Thu 08:54:35 AM 54.5040 -13.0250 294° West 489 563 36,000  Level FlightAware ADS-B
Thu 08:55:16 AM 54.5430 -13.1740 294° West 490 564 36,000  Level FlightAware ADS-B
Thu 08:56:00 AM 54.5830 -13.3280 294° West 490 564 36,000  Level FlightAware ADS-B
Thu 08:56:40 AM 54.6190 -13.4670 294° West 492 566 36,000  Level FlightAware ADS-B
Thu 08:57:26 AM 54.6630 -13.6390 294° West 492 566 36,000  Level FlightAware ADS-B
Thu 08:58:00 AM 54.6940 -13.7610 294° West 491 565 36,000  Level FlightAware ADS-B
Thu 08:58:40 AM 54.7320 -13.9120 294° West 494 568 36,000  Level FlightAware ADS-B
Thu 08:59:19 AM 54.7610 -14.0290 293° West 494 568 36,000  Level FlightAware ADS-B
Thu 09:01:29 AM 54.8600 -14.4330 293° West 494 568 36,000  Level FlightAware ADS-B
Thu 09:02:05 AM 54.8870 -14.5440 293° West 494 568 36,000  Level FlightAware ADS-B
Thu 09:02:53 AM 54.9230 -14.6940 293° West 494 568 36,000  Level FlightAware ADS-B
Thu 09:03:30 AM 54.9520 -14.8090 294° West 494 568 36,000  Level FlightAware ADS-B
Thu 09:05:03 AM 55.0220 -15.0990 293° West 494 568 36,000  Level FlightAware ADS-B
Thu 09:05:51 AM 55.0580 -15.2490 293° West 494 568 36,000  Level FlightAware ADS-B
Thu 09:06:27 AM 55.0860 -15.3610 294° West 494 568 36,000  Level FlightAware ADS-B
Thu 09:07:39 AM 55.1400 -15.5860 293° West 494 568 36,000  Level FlightAware ADS-B
Thu 09:08:15 AM 55.1680 -15.6990 293° West 494 568 36,000  Level FlightAware ADS-B
Thu 09:11:00 AM 55.2576 -16.2766 285° West  Level Estimated
Thu 09:12:00 AM 55.2895 -16.4873 285° West  Level Estimated
Thu 09:13:00 AM 55.3211 -16.6984 285° West  Level Estimated
Thu 09:14:00 AM 55.3522 -16.9097 285° West  Level Estimated
Thu 09:15:00 AM 55.3991 -17.1183 292° West  Level FlightAware Approximate
Thu 09:16:00 AM 55.4456 -17.3274 291° West  Level FlightAware Approximate
Thu 09:17:00 AM 55.4918 -17.5371 291° West  Level FlightAware Approximate
Thu 09:18:00 AM 55.5376 -17.7472 291° West  Level FlightAware Approximate
Thu 09:19:00 AM 55.5831 -17.9578 291° West  Level FlightAware Approximate
Thu 09:20:00 AM 55.6282 -18.1688 291° West  Level FlightAware Approximate
Thu 09:21:00 AM 55.6729 -18.3804 291° West  Level FlightAware Approximate
Thu 09:22:00 AM 55.7172 -18.5924 290° West  Level FlightAware Approximate
Thu 09:23:00 AM 55.7612 -18.8049 290° West  Level FlightAware Approximate
Thu 09:24:00 AM 55.8048 -19.0179 290° West  Level FlightAware Approximate
Thu 09:25:00 AM 55.8481 -19.2314 290° West  Level FlightAware Approximate
Thu 09:26:00 AM 55.8910 -19.4454 290° West  Level FlightAware Approximate
Thu 09:27:00 AM 55.9335 -19.6598 290° West  Level FlightAware Approximate
Thu 09:27:00 AM 56.0000 -20.0000 284° West 492 566 36,000  Level ETMS Enhanced Traffic Management System
Thu 09:28:00 AM 55.9756 -19.8747 289° West  Level FlightAware Approximate
Thu 09:29:00 AM 56.0132 -20.0937 284° West  Level FlightAware Approximate
Thu 09:30:00 AM 56.0441 -20.3150 284° West  Level FlightAware Approximate
Thu 09:31:00 AM 56.0746 -20.5367 284° West  Level FlightAware Approximate
Thu 09:32:00 AM 56.1046 -20.7588 284° West  Level FlightAware Approximate
Thu 09:33:00 AM 56.2576 -21.9068 283° West 492 566 36,000  Level FlightAware Transoceanic
Thu 09:34:00 AM 56.2877 -22.1469 283° West 492 566 36,000  Level FlightAware Transoceanic
Thu 09:35:00 AM 56.3174 -22.3874 282° West 492 566 36,000  Level FlightAware Transoceanic
Thu 09:36:00 AM 56.3466 -22.6282 282° West 492 566 36,000  Level FlightAware Transoceanic
Thu 09:37:00 AM 56.3753 -22.8695 282° West 492 566 36,000  Level FlightAware Transoceanic
Thu 09:38:00 AM 56.4036 -23.1110 282° West 492 566 36,000  Level FlightAware Transoceanic
Thu 09:39:00 AM 56.4314 -23.3530 282° West 492 566 36,000  Level FlightAware Transoceanic
Thu 09:40:00 AM 56.4587 -23.5953 281° West 492 566 36,000  Level FlightAware Transoceanic
Thu 09:41:00 AM 56.4855 -23.8379 281° West 492 566 36,000  Level FlightAware Transoceanic
Thu 09:42:00 AM 56.5119 -24.0809 281° West 492 566 36,000  Level FlightAware Transoceanic
Thu 09:43:00 AM 56.5378 -24.3242 281° West 492 566 36,000  Level FlightAware Transoceanic
Thu 09:44:00 AM 56.5632 -24.5678 281° West 492 566 36,000  Level FlightAware Transoceanic
Thu 09:45:00 AM 56.5882 -24.8118 280° West 492 566 36,000  Level FlightAware Transoceanic
Thu 09:46:00 AM 56.6126 -25.0561 280° West 492 566 36,000  Level FlightAware Transoceanic
Thu 09:47:00 AM 56.6366 -25.3007 280° West 492 566 36,000  Level FlightAware Transoceanic
Thu 09:48:00 AM 56.6601 -25.5456 280° West 492 566 36,000  Level FlightAware Transoceanic
Thu 09:49:00 AM 56.6831 -25.7908 280° West 492 566 36,000  Level FlightAware Transoceanic
Thu 09:50:00 AM 56.7057 -26.0363 279° West 492 566 36,000  Level FlightAware Transoceanic
Thu 09:51:00 AM 56.7277 -26.2821 279° West 492 566 36,000  Level FlightAware Transoceanic
Thu 09:52:00 AM 56.7493 -26.5282 279° West 492 566 36,000  Level FlightAware Transoceanic
Thu 09:53:00 AM 56.7704 -26.7746 279° West 492 566 36,000  Level FlightAware Transoceanic
Thu 09:54:00 AM 56.7910 -27.0212 279° West 492 566 36,000  Level FlightAware Transoceanic
Thu 09:55:00 AM 56.8111 -27.2681 278° West 492 566 36,000  Level FlightAware Transoceanic
Thu 09:56:00 AM 56.8307 -27.5153 278° West 492 566 36,000  Level FlightAware Transoceanic
Thu 09:57:00 AM 56.8499 -27.7627 278° West 492 566 36,000  Level FlightAware Transoceanic
Thu 09:58:00 AM 56.8685 -28.0104 278° West 492 566 36,000  Level FlightAware Transoceanic
Thu 09:59:00 AM 56.8867 -28.2583 278° West 492 566 36,000  Level FlightAware Transoceanic
Thu 10:00:00 AM 56.9044 -28.5064 277° West 492 566 36,000  Level FlightAware Transoceanic
Thu 10:01:00 AM 56.9215 -28.7548 277° West 492 566 36,000  Level FlightAware Transoceanic
Thu 10:02:00 AM 56.9382 -29.0034 277° West 492 566 36,000  Level FlightAware Transoceanic
Thu 10:03:00 AM 56.9544 -29.2523 277° West 492 566 36,000  Level FlightAware Transoceanic
Thu 10:04:00 AM 56.9701 -29.5013 276° West 492 566 36,000  Level FlightAware Transoceanic
Thu 10:05:00 AM 56.9853 -29.7505 276° West 492 566 36,000  Level FlightAware Transoceanic
Thu 10:06:00 AM 56.9990 -29.9832 276° West  Level FlightAware Approximate
Thu 10:07:00 AM 57.0123 -30.2160 276° West  Level FlightAware Approximate
Thu 10:08:00 AM 57.0272 -30.1940 285° West  Level FlightAware Approximate
Thu 10:09:00 AM 57.0587 -30.4211 284° West  Level FlightAware Approximate
Thu 10:10:00 AM 57.0897 -30.6485 284° West  Level FlightAware Approximate
Thu 10:11:00 AM 57.1203 -30.8764 284° West  Level FlightAware Approximate
Thu 10:12:00 AM 57.1505 -31.1046 284° West  Level FlightAware Approximate
Thu 10:13:00 AM 57.1802 -31.3332 284° West  Level FlightAware Approximate
Thu 10:14:00 AM 57.2096 -31.5622 283° West  Level FlightAware Approximate
Thu 10:15:00 AM 57.2386 -31.7915 283° West  Level FlightAware Approximate
Thu 10:16:00 AM 57.2671 -32.0212 283° West  Level FlightAware Approximate
Thu 10:17:00 AM 57.2952 -32.2512 283° West  Level FlightAware Approximate
Thu 10:18:00 AM 57.3229 -32.4816 283° West  Level FlightAware Approximate
Thu 10:19:00 AM 57.3502 -32.7123 282° West  Level FlightAware Approximate
Thu 10:20:00 AM 57.3770 -32.9434 282° West  Level FlightAware Approximate
Thu 10:21:00 AM 57.4034 -33.1748 282° West  Level FlightAware Approximate
Thu 10:22:00 AM 57.4294 -33.4065 282° West  Level FlightAware Approximate
Thu 10:23:00 AM 57.4550 -33.6385 282° West  Level FlightAware Approximate
Thu 10:24:00 AM 57.4801 -33.8709 281° West  Level FlightAware Approximate
Thu 10:25:00 AM 57.5048 -34.1036 281° West  Level FlightAware Approximate
Thu 10:26:00 AM 57.5295 -34.3365 281° West  Level FlightAware Approximate
Thu 10:27:00 AM 57.5541 -34.5695 281° West  Level FlightAware Approximate
Thu 10:28:00 AM 57.5784 -34.8028 281° West  Level FlightAware Approximate
Thu 10:29:00 AM 57.6021 -35.0365 281° West  Level FlightAware Approximate
Thu 10:30:00 AM 57.6255 -35.2705 281° West  Level FlightAware Approximate
Thu 10:31:00 AM 57.6484 -35.5047 280° West  Level FlightAware Approximate
Thu 10:32:00 AM 57.6708 -35.7393 280° West  Level FlightAware Approximate
Thu 10:33:00 AM 57.6929 -35.9741 280° West  Level FlightAware Approximate
Thu 10:34:00 AM 57.7145 -36.2093 280° West  Level FlightAware Approximate
Thu 10:35:00 AM 57.7357 -36.4447 280° West  Level FlightAware Approximate
Thu 10:36:00 AM 57.7564 -36.6804 279° West  Level FlightAware Approximate
Thu 10:37:00 AM 57.7766 -36.9147 279° West  Level FlightAware Approximate
Thu 10:38:00 AM 57.7963 -37.1493 279° West  Level FlightAware Approximate
Thu 10:39:00 AM 57.8156 -37.3842 279° West  Level FlightAware Approximate
Thu 10:40:00 AM 57.8344 -37.6193 279° West  Level FlightAware Approximate
Thu 10:41:00 AM 57.8529 -37.8547 278° West  Level FlightAware Approximate
Thu 10:42:00 AM 57.8709 -38.0903 278° West  Level FlightAware Approximate
Thu 10:43:00 AM 57.8884 -38.3261 278° West  Level FlightAware Approximate
Thu 10:44:00 AM 57.9055 -38.5622 278° West  Level FlightAware Approximate
Thu 10:45:00 AM 57.9222 -38.7985 278° West  Level FlightAware Approximate
Thu 10:46:00 AM 57.9384 -39.0350 277° West  Level FlightAware Approximate
Thu 10:47:00 AM 57.9542 -39.2717 277° West  Level FlightAware Approximate
Thu 10:48:00 AM 57.9696 -39.5087 277° West  Level FlightAware Approximate
Thu 10:49:00 AM 57.9845 -39.7458 277° West  Level FlightAware Approximate
Thu 10:50:00 AM 57.9990 -39.9831 277° West  Level FlightAware Approximate
Thu 10:51:00 AM 58.0085 -40.2214 274° West  Level FlightAware Approximate
Thu 10:52:00 AM 58.0172 -40.4598 274° West  Level FlightAware Approximate
Thu 10:53:00 AM 58.0255 -40.6984 274° West  Level FlightAware Approximate
Thu 10:54:00 AM 58.0334 -40.9371 274° West  Level FlightAware Approximate
Thu 10:55:00 AM 58.0408 -41.1758 273° West  Level FlightAware Approximate
Thu 10:56:00 AM 58.0477 -41.4147 273° West  Level FlightAware Approximate
Thu 10:57:00 AM 58.0542 -41.6537 273° West  Level FlightAware Approximate
Thu 10:58:00 AM 58.0603 -41.8927 273° West  Level FlightAware Approximate
Thu 10:59:00 AM 58.0659 -42.1319 273° West  Level FlightAware Approximate
Thu 11:00:00 AM 58.0710 -42.3711 272° West  Level FlightAware Approximate
Thu 11:01:00 AM 58.0757 -42.6103 272° West  Level FlightAware Approximate
Thu 11:02:00 AM 58.0800 -42.8496 272° West  Level FlightAware Approximate
Thu 11:03:00 AM 58.0838 -43.0890 272° West  Level FlightAware Approximate
Thu 11:04:00 AM 58.0872 -43.3284 272° West  Level FlightAware Approximate
Thu 11:05:00 AM 58.0901 -43.5679 271° West  Level FlightAware Approximate
Thu 11:06:00 AM 58.0925 -43.8074 271° West  Level FlightAware Approximate
Thu 11:07:00 AM 58.0945 -44.0469 271° West  Level FlightAware Approximate
Thu 11:08:00 AM 58.0961 -44.2865 271° West  Level FlightAware Approximate
Thu 11:09:00 AM 58.0972 -44.5261 271° West  Level FlightAware Approximate
Thu 11:10:00 AM 58.0979 -44.7657 270° West  Level FlightAware Approximate
Thu 11:11:00 AM 58.0981 -45.0053 270° West  Level FlightAware Approximate
Thu 11:12:00 AM 58.0979 -45.2449 270° West  Level FlightAware Approximate
Thu 11:13:00 AM 58.0972 -45.4844 270° West  Level FlightAware Approximate
Thu 11:14:00 AM 58.0960 -45.7240 270° West  Level FlightAware Approximate
Thu 11:15:00 AM 58.0945 -45.9636 269° West  Level FlightAware Approximate
Thu 11:16:00 AM 58.0924 -46.2031 269° West  Level FlightAware Approximate
Thu 11:17:00 AM 58.0900 -46.4426 269° West  Level FlightAware Approximate
Thu 11:18:00 AM 58.0870 -46.6821 269° West  Level FlightAware Approximate
Thu 11:19:00 AM 58.0836 -46.9215 269° West  Level FlightAware Approximate
Thu 11:20:00 AM 58.0798 -47.1609 268° West  Level FlightAware Approximate
Thu 11:21:00 AM 58.0755 -47.4002 268° West  Level FlightAware Approximate
Thu 11:22:00 AM 58.0708 -47.6395 268° West  Level FlightAware Approximate
Thu 11:23:00 AM 58.0656 -47.8786 268° West  Level FlightAware Approximate
Thu 11:24:00 AM 58.0600 -48.1178 268° West  Level FlightAware Approximate
Thu 11:25:00 AM 58.0539 -48.3568 267° West  Level FlightAware Approximate
Thu 11:26:00 AM 58.0474 -48.5958 267° West  Level FlightAware Approximate
Thu 11:27:00 AM 58.0405 -48.8346 267° West  Level FlightAware Approximate
Thu 11:28:00 AM 58.0330 -49.0734 267° West  Level FlightAware Approximate
Thu 11:29:00 AM 58.0252 -49.3121 267° West  Level FlightAware Approximate
Thu 11:30:00 AM 58.0169 -49.5506 266° West  Level FlightAware Approximate
Thu 11:31:00 AM 58.0081 -49.7891 266° West  Level FlightAware Approximate
Thu 11:32:00 AM 57.9950 -50.0258 250° West  Level FlightAware Approximate
Thu 11:33:00 AM 57.9512 -50.2498 250° West  Level FlightAware Approximate
Thu 11:34:00 AM 57.9069 -50.4733 250° West  Level FlightAware Approximate
Thu 11:35:00 AM 57.8623 -50.6962 249° West  Level FlightAware Approximate
Thu 11:36:00 AM 57.8173 -50.9185 249° West  Level FlightAware Approximate
Thu 11:37:00 AM 57.7719 -51.1403 249° West  Level FlightAware Approximate
Thu 11:38:00 AM 57.7262 -51.3615 249° West  Level FlightAware Approximate
Thu 11:38:50 AM 57.6500 -51.9667 248° West 480 552 36,000  Level Gander Center
Thu 11:39:00 AM 57.6800 -51.5822 249° West  Level FlightAware Approximate
Thu 11:40:00 AM 57.6335 -51.8023 249° West  Level FlightAware Approximate
Thu 11:40:00 AM 57.6016 -52.2273 251° West  Level Estimated
Thu 11:41:00 AM 57.5866 -52.0219 248° West  Level FlightAware Approximate
Thu 11:42:00 AM 57.5393 -52.2408 248° West  Level FlightAware Approximate
Thu 11:43:00 AM 57.4916 -52.4592 248° West  Level FlightAware Approximate
Thu 11:44:00 AM 57.4435 -52.6771 248° West  Level FlightAware Approximate
Thu 11:44:51 AM 57.3833 -53.3833 249° West 470 541 36,000  Level Gander Center
Thu 11:45:51 AM 57.3500 -53.6000 254° West 470 541 36,000  Level Gander Center
Thu 11:46:51 AM 57.2833 -53.8333 242° Southwest 480 552 36,000  Level Gander Center
Thu 11:47:00 AM 57.2998 -53.7762 251° West  Level Estimated
Thu 11:47:51 AM 57.2333 -54.0667 248° West 480 552 36,000  Level Gander Center
Thu 11:48:00 AM 57.2551 -53.9954 249° West  Level Estimated
Thu 11:48:51 AM 57.2000 -54.2833 254° West 480 552 36,000  Level Gander Center
Thu 11:49:00 AM 57.2100 -54.2141 249° West  Level Estimated
Thu 11:49:51 AM 57.1500 -54.5167 249° West 470 541 36,000  Level Gander Center
Thu 11:50:00 AM 57.1646 -54.4322 249° West  Level Estimated
Thu 11:50:51 AM 57.1000 -54.7333 247° West 480 552 36,000  Level Gander Center
Thu 11:51:51 AM 57.0500 -54.9833 250° West 480 552 36,000  Level Gander Center
Thu 11:52:51 AM 57.0167 -55.2167 255° West 480 552 36,000  Level Gander Center
Thu 11:53:51 AM 56.9500 -55.4000 236° Southwest 470 541 36,000  Level Gander Center
Thu 11:54:51 AM 56.9167 -55.6000 253° West 470 541 36,000  Level Gander Center
Thu 11:55:51 AM 56.8500 -55.8500 244° Southwest 500 575 36,000  Level Gander Center
Thu 11:56:51 AM 56.8000 -56.0333 244° Southwest 450 518 36,000  Level Gander Center
Thu 11:57:51 AM 56.7500 -56.2833 250° West 450 518 36,000  Level Gander Center
Thu 11:58:51 AM 56.7000 -56.5000 247° West 470 541 36,000  Level Gander Center
Thu 11:59:51 AM 56.6500 -56.7500 250° West 490 564 36,000  Level Gander Center
Thu 12:00:51 PM 56.5833 -56.9833 243° Southwest 470 541 36,000  Level Gander Center
Thu 12:01:51 PM 56.5167 -57.1667 237° Southwest 480 552 36,000  Level Gander Center
Thu 12:02:51 PM 56.4667 -57.3833 247° West 470 541 36,000  Level Gander Center
Thu 12:03:51 PM 56.3833 -57.6000 235° Southwest 480 552 36,000  Level Gander Center
Thu 12:04:51 PM 56.3167 -57.7833 237° Southwest 480 552 36,000  Level Gander Center
Thu 12:05:51 PM 56.2500 -58.0000 241° Southwest 480 552 36,000  Level Gander Center
Thu 12:06:51 PM 56.1833 -58.2000 239° Southwest 480 552 36,000  Level Gander Center
Thu 12:07:51 PM 56.1000 -58.4000 233° Southwest 480 552 36,000  Level Gander Center
Thu 12:08:51 PM 56.0333 -58.6167 241° Southwest 480 552 36,000  Level Gander Center
Thu 12:09:51 PM 55.9833 -58.8333 248° West 480 552 36,000  Level Gander Center
Thu 12:10:51 PM 55.9000 -59.0167 231° Southwest 480 552 36,000  Level Gander Center
Thu 12:11:51 PM 55.8333 -59.2333 241° Southwest 480 552 36,000  Level Gander Center
Thu 12:12:51 PM 55.7500 -59.4500 236° Southwest 480 552 36,000  Level Gander Center
Thu 12:13:51 PM 55.6833 -59.6167 235° Southwest 480 552 36,000  Level Gander Center
Thu 12:14:51 PM 55.6333 -59.8333 248° West 480 552 36,000  Level Gander Center
Thu 12:15:51 PM 55.5500 -60.0167 231° Southwest 480 552 36,000  Level Gander Center
Thu 12:16:51 PM 55.4833 -60.2167 240° Southwest 480 552 36,000  Level Gander Center
Thu 12:17:51 PM 55.4167 -60.4333 242° Southwest 480 552 36,000  Level Gander Center
Thu 12:18:51 PM 55.3333 -60.6333 234° Southwest 480 552 36,000  Level Gander Center
Thu 12:19:51 PM 55.2667 -60.8167 238° Southwest 480 552 36,000  Level Gander Center
Thu 12:20:51 PM 55.1833 -61.0167 234° Southwest 480 552 36,000  Level Gander Center
Thu 12:21:51 PM 55.1167 -61.2167 240° Southwest 480 552 36,000  Level Gander Center
Thu 12:22:51 PM 55.0500 -61.4000 238° Southwest 480 552 36,000  Level Gander Center
Thu 12:23:51 PM 54.9667 -61.6000 234° Southwest 480 552 36,000  Level Gander Center
Thu 12:24:51 PM 54.9000 -61.7833 238° Southwest 480 552 36,000  Level Gander Center
Thu 12:25:51 PM 54.8167 -61.9833 234° Southwest 480 552 36,000  Level Gander Center
Thu 12:26:51 PM 54.7500 -62.1833 240° Southwest 480 552 36,000  Level Gander Center
Thu 12:27:51 PM 54.6667 -62.3833 234° Southwest 480 552 36,000  Level Gander Center
Thu 12:28:51 PM 54.6000 -62.5500 235° Southwest 470 541 36,000  Level Gander Center
Thu 12:29:51 PM 54.5167 -62.7500 234° Southwest 480 552 36,000  Level Gander Center
Thu 12:30:51 PM 54.4333 -62.9167 229° Southwest 470 541 36,000  Level Gander Center
Thu 12:31:51 PM 54.3667 -63.1167 240° Southwest 470 541 36,000  Level Gander Center
Thu 12:32:51 PM 54.3000 -63.2833 236° Southwest 470 541 36,000  Level Gander Center
Thu 12:33:51 PM 54.2167 -63.4833 235° Southwest 470 541 36,000  Level Gander Center
Thu 12:34:51 PM 54.1333 -63.6833 235° Southwest 470 541 36,000  Level Gander Center
Thu 12:35:51 PM 54.0667 -63.8500 236° Southwest 470 541 36,000  Level Gander Center
Thu 12:36:51 PM 53.9833 -64.0333 232° Southwest 470 541 36,000  Level Gander Center
Thu 12:37:51 PM 53.9167 -64.2000 236° Southwest 470 541 36,000  Level Gander Center
Thu 12:38:51 PM 53.8167 -64.4000 230° Southwest 470 541 36,000  Level Gander Center
Thu 12:39:51 PM 53.7500 -64.5667 236° Southwest 470 541 36,000  Level Gander Center
Thu 12:40:51 PM 53.6833 -64.7500 239° Southwest 470 541 36,000  Level Gander Center
Thu 12:41:51 PM 53.6167 -64.9167 236° Southwest 470 541 36,000  Level Gander Center
Thu 12:42:51 PM 53.5333 -65.1167 235° Southwest 470 541 36,000  Level Gander Center
Thu 12:43:51 PM 53.4500 -65.2667 227° Southwest 460 529 36,000  Level Gander Center
Thu 12:44:51 PM 53.3833 -65.4333 236° Southwest 460 529 36,000  Level Gander Center
Thu 12:45:51 PM 53.2833 -65.6167 228° Southwest 460 529 36,000  Level Gander Center
Thu 12:46:51 PM 53.2167 -65.7833 236° Southwest 470 541 36,000  Level Gander Center
Thu 12:47:51 PM 53.1333 -65.9667 233° Southwest 460 529 36,000  Level Gander Center
Thu 12:48:51 PM 53.0667 -66.1333 236° Southwest 470 541 36,000  Level Gander Center
Thu 12:49:51 PM 52.9667 -66.3167 228° Southwest 460 529 36,000  Level Gander Center
Thu 12:50:51 PM 52.9000 -66.4667 234° Southwest 470 541 36,000  Level Gander Center
Thu 12:51:51 PM 52.8333 -66.6333 237° Southwest 460 529 36,000  Level Gander Center
Thu 12:52:51 PM 52.7500 -66.8167 233° Southwest 460 529 36,000  Level Gander Center
Thu 12:53:51 PM 52.6667 -66.9667 228° Southwest 460 529 36,000  Level Gander Center
Thu 12:54:51 PM 52.5833 -67.1500 233° Southwest 470 541 36,000  Level Gander Center
Thu 12:55:51 PM 52.5167 -67.3000 234° Southwest 460 529 36,000  Level Gander Center
Thu 12:56:51 PM 52.4333 -67.4833 233° Southwest 460 529 36,000  Level Gander Center
Thu 12:57:51 PM 52.3500 -67.6333 228° Southwest 460 529 36,000  Level Gander Center
Thu 12:58:51 PM 52.2667 -67.8167 233° Southwest 450 518 36,000  Level Gander Center
Thu 12:59:51 PM 52.1833 -67.9667 228° Southwest 450 518 36,000  Level Gander Center
Thu 01:00:51 PM 52.1167 -68.1167 234° Southwest 460 529 36,000  Level Gander Center
Thu 01:01:51 PM 52.0333 -68.2833 231° Southwest 450 518 36,000  Level Gander Center
Thu 01:02:51 PM 51.9667 -68.4333 234° Southwest 460 529 36,000  Level Gander Center
Thu 01:03:51 PM 51.8667 -68.6000 226° Southwest 460 529 36,000  Level Gander Center
Thu 01:04:51 PM 51.7833 -68.7500 228° Southwest 460 529 36,000  Level Gander Center
Thu 01:05:51 PM 51.7167 -68.9333 240° Southwest 460 529 36,000  Level Gander Center
Thu 01:06:51 PM 51.6333 -69.0833 228° Southwest 450 518 36,000  Level Gander Center
Thu 01:07:51 PM 51.5333 -69.2500 226° Southwest 460 529 36,000  Level Gander Center
Thu 01:08:51 PM 51.4667 -69.4000 235° Southwest 450 518 36,000  Level Gander Center
Thu 01:09:51 PM 51.3833 -69.5500 228° Southwest 460 529 36,000  Level Gander Center
Thu 01:10:51 PM 51.3000 -69.7000 228° Southwest 450 518 36,000  Level Gander Center
Thu 01:11:51 PM 51.2167 -69.8667 231° Southwest 450 518 36,000  Level Gander Center
Thu 01:12:51 PM 51.1333 -70.0167 229° Southwest 450 518 36,000  Level Gander Center
Thu 01:13:51 PM 51.0500 -70.1500 225° Southwest 450 518 36,000  Level Gander Center
Thu 01:14:51 PM 50.9500 -70.3000 223° Southwest 450 518 36,000  Level Gander Center
Thu 01:15:51 PM 50.8833 -70.4167 228° Southwest 440 506 36,000  Level Gander Center
Thu 01:16:51 PM 50.7833 -70.5500 220° Southwest 440 506 36,000 200 Level Gander Center
Thu 01:17:51 PM 50.7000 -70.7000 229° Southwest 440 506 36,400 450 Climbing Gander Center
Thu 01:18:51 PM 50.6167 -70.8333 225° Southwest 440 506 36,900 500 Climbing Gander Center
Thu 01:19:51 PM 50.5333 -70.9833 229° Southwest 440 506 37,400 500 Climbing Gander Center
Thu 01:20:51 PM 50.4333 -71.1167 220° Southwest 450 518 37,900 300 Climbing Gander Center
Thu 01:21:51 PM 50.3667 -71.2333 228° Southwest 450 518 38,000 16 Climbing Gander Center
Thu 01:27:13 PM 49.9200 -71.9110 228° Southwest 444 511 38,000  Level FlightAware ADS-B
Thu 01:27:47 PM 49.8420 -72.0280 224° Southwest 443 510 38,000  Level FlightAware ADS-B
Thu 01:28:23 PM 49.7950 -72.0990 224° Southwest 442 509 38,000  Level FlightAware ADS-B
Thu 01:29:08 PM 49.7230 -72.2050 224° Southwest 439 505 38,000  Level FlightAware ADS-B
Thu 01:29:53 PM 49.6600 -72.2990 224° Southwest 436 502 38,000  Level FlightAware ADS-B
Thu 01:30:24 PM 49.6150 -72.3660 224° Southwest 434 499 38,000  Level FlightAware ADS-B
Thu 01:31:09 PM 49.5490 -72.4630 224° Southwest 433 498 38,000  Level FlightAware ADS-B
Thu 01:31:49 PM 49.4910 -72.5470 223° Southwest 432 497 38,000  Level FlightAware ADS-B
Thu 01:32:29 PM 49.4400 -72.6220 224° Southwest 432 497 38,000  Level FlightAware ADS-B
Thu 01:33:11 PM 49.3780 -72.7130 224° Southwest 432 497 38,000  Level FlightAware ADS-B
Thu 01:33:59 PM 49.3090 -72.8130 223° Southwest 432 497 38,000  Level FlightAware ADS-B
Thu 01:34:35 PM 49.2640 -72.8770 223° Southwest 432 497 38,000  Level FlightAware ADS-B
Thu 01:35:23 PM 49.2040 -72.9620 223° Southwest 432 497 38,000  Level FlightAware ADS-B
Thu 01:36:11 PM 49.1450 -73.0470 223° Southwest 432 497 38,000  Level FlightAware ADS-B
Thu 01:36:48 PM 49.0990 -73.1130 223° Southwest 432 497 38,000  Level FlightAware ADS-B
Thu 01:37:25 PM 49.0530 -73.1780 223° Southwest 432 497 38,000  Level FlightAware ADS-B
Thu 01:38:02 PM 49.0070 -73.2430 223° Southwest 432 497 38,000  Level FlightAware ADS-B
Thu 01:38:50 PM 48.9470 -73.3280 223° Southwest 432 497 38,000  Level FlightAware ADS-B
Thu 01:39:26 PM 48.9020 -73.3920 223° Southwest 432 497 38,000  Level FlightAware ADS-B
Thu 01:40:02 PM 48.8570 -73.4550 223° Southwest 432 497 38,000  Level FlightAware ADS-B
Thu 01:40:48 PM 48.8000 -73.5360 223° Southwest 432 497 38,000  Level FlightAware ADS-B
Thu 01:41:34 PM 48.7430 -73.6170 223° Southwest 432 497 38,000  Level FlightAware ADS-B
Thu 01:42:10 PM 48.6980 -73.6800 223° Southwest 432 497 38,000  Level FlightAware ADS-B
Thu 01:43:11 PM 48.6230 -73.7870 223° Southwest 432 497 38,000  Level FlightAware ADS-B
Thu 01:44:06 PM 48.5600 -74.2010 257° West 38,000  Level FlightAware ADS-B
Thu 01:44:20 PM 48.5420 -74.2360 232° Southwest 425 489 38,000  Level FlightAware ADS-B
Thu 01:45:01 PM 48.4920 -74.3290 231° Southwest 427 491 38,000  Level FlightAware ADS-B
Thu 01:45:38 PM 48.4540 -74.4030 232° Southwest 427 491 38,000  Level FlightAware ADS-B
Thu 01:46:28 PM 48.4030 -74.5030 232° Southwest 427 491 38,000  Level FlightAware ADS-B
Thu 01:47:08 PM 48.3390 -74.6160 230° Southwest 434 499 38,000  Level FlightAware ADS-B
Thu 01:48:02 PM 48.2690 -74.7470 231° Southwest 438 504 38,000  Level FlightAware ADS-B
Thu 01:48:38 PM 48.2300 -74.8200 231° Southwest 438 504 38,000  Level FlightAware ADS-B
Thu 01:49:01 PM 48.1890 -74.8950 231° Southwest 438 504 38,000  Level FlightAware ADS-B
Thu 01:49:50 PM 48.1360 -74.9930 231° Southwest 438 504 38,000  Level FlightAware ADS-B
Thu 01:50:31 PM 48.0740 -75.1070 231° Southwest 38,000  Level FlightAware ADS-B
Thu 01:53:32 PM 47.8340 -75.5440 231° Southwest 442 509 38,000  Level FlightAware ADS-B
Thu 01:54:23 PM 47.7700 -75.6580 230° Southwest 444 511 38,000  Level FlightAware ADS-B
Thu 01:55:03 PM 47.7260 -75.7390 231° Southwest 444 511 38,000  Level FlightAware ADS-B
Thu 01:55:48 PM 47.6590 -75.8570 230° Southwest 450 518 38,000  Level FlightAware ADS-B
Thu 01:56:38 PM 47.6020 -75.9570 230° Southwest 450 518 38,000  Level FlightAware ADS-B
Thu 01:57:14 PM 47.5610 -76.0300 230° Southwest 450 518 38,000  Level FlightAware ADS-B
Thu 01:58:00 PM 47.4870 -76.1620 230° Southwest 453 521 38,000  Level FlightAware ADS-B
Thu 01:58:37 PM 47.4450 -76.2370 230° Southwest 453 521 38,000  Level FlightAware ADS-B
Thu 02:01:37 PM 47.1860 -76.6870 230° Southwest 459 528 38,000  Level FlightAware ADS-B
Thu 02:02:18 PM 47.1210 -76.7990 230° Southwest 462 532 38,000  Level FlightAware ADS-B
Thu 02:02:59 PM 47.0650 -76.8960 230° Southwest 461 531 38,000  Level FlightAware ADS-B
Thu 02:03:43 PM 47.0060 -76.9980 230° Southwest 461 531 38,000  Level FlightAware ADS-B
Thu 02:04:23 PM 46.9490 -77.0940 229° Southwest 460 529 38,000  Level FlightAware ADS-B
Thu 02:05:02 PM 46.8940 -77.1870 229° Southwest 460 529 38,000  Level FlightAware ADS-B
Thu 02:05:48 PM 46.8310 -77.2940 229° Southwest 459 528 38,000  Level FlightAware ADS-B
Thu 02:06:29 PM 46.7810 -77.3940 234° Southwest 448 516 38,000  Level FlightAware ADS-B
Thu 02:07:09 PM 46.7420 -77.5000 242° Southwest 440 506 38,000  Level FlightAware ADS-B
Thu 02:07:53 PM 46.7020 -77.6150 243° Southwest 441 507 38,000  Level FlightAware ADS-B
Thu 02:08:35 PM 46.6620 -77.7270 243° Southwest 442 509 38,000  Level FlightAware ADS-B
Thu 02:09:12 PM 46.6320 -77.8110 243° Southwest 443 510 38,000  Level FlightAware ADS-B
Thu 02:09:59 PM 46.5840 -77.9490 243° Southwest 444 511 38,000  Level FlightAware ADS-B
Thu 02:10:41 PM 46.5460 -78.0560 243° Southwest 443 510 38,000  Level FlightAware ADS-B
Thu 02:11:39 PM 46.4910 -78.2110 243° Southwest 445 512 38,000  Level FlightAware ADS-B
Thu 02:12:20 PM 46.4610 -78.2930 242° Southwest 445 512 38,000  Level FlightAware ADS-B
Thu 02:12:57 PM 46.4150 -78.4210 243° Southwest 446 513 38,000  Level FlightAware ADS-B
Thu 02:13:44 PM 46.3700 -78.5460 242° Southwest 446 513 38,000 207 Level FlightAware ADS-B
Thu 02:14:24 PM 46.3320 -78.6520 243° Southwest 448 516 38,300 578 Climbing FlightAware ADS-B
Thu 02:15:07 PM 46.2910 -78.7630 242° Southwest 448 516 38,800 483 Climbing FlightAware ADS-B
Thu 02:15:51 PM 46.2480 -78.8820 242° Southwest 454 522 39,000 456 Climbing FlightAware ADS-B
Thu 02:16:26 PM 46.2140 -78.9740 242° Southwest 455 524 39,400 560 Climbing FlightAware ADS-B
Thu 02:17:06 PM 46.1740 -79.0820 242° Southwest 456 525 39,700 429 Climbing FlightAware ADS-B
Thu 02:17:50 PM 46.1310 -79.1990 242° Southwest 456 525 40,000 222 Climbing FlightAware ADS-B
Thu 02:18:27 PM 46.0930 -79.2990 241° Southwest 457 526 40,000  Level FlightAware ADS-B
Thu 02:19:07 PM 46.0540 -79.4040 242° Southwest 456 525 40,000  Level FlightAware ADS-B
Thu 02:19:50 PM 46.0120 -79.5180 242° Southwest 456 525 40,000  Level FlightAware ADS-B
Thu 02:24:37 PM 45.7590 -80.1690 241° Southwest 456 525 40,000  Level FlightAware ADS-B
Thu 02:25:00 PM 45.7390 -80.2210 241° Southwest 456 525 40,000  Level FlightAware ADS-B
Thu 02:27:42 PM 45.5190 -80.6490 234° Southwest 459 528 40,000  Level FlightAware ADS-B
Thu 02:28:17 PM 45.4540 -80.7780 234° Southwest 463 533 40,000  Level FlightAware ADS-B
Thu 02:29:02 PM 45.3940 -80.8930 233° Southwest 466 536 40,000  Level FlightAware ADS-B
Thu 02:29:37 PM 45.3440 -80.9890 233° Southwest 466 536 40,000  Level FlightAware ADS-B
Thu 02:30:18 PM 45.2800 -81.1100 233° Southwest 468 539 40,000  Level FlightAware ADS-B
Thu 02:30:52 PM 45.2370 -81.1930 234° Southwest 468 539 40,000  Level FlightAware ADS-B
Thu 02:31:38 PM 45.1720 -81.2970 228° Southwest 474 545 40,000  Level FlightAware ADS-B
Thu 02:32:15 PM 45.1120 -81.3800 224° Southwest 476 548 40,000  Level FlightAware ADS-B
Thu 02:32:52 PM 45.0510 -81.4540 221° Southwest 477 549 40,000  Level FlightAware ADS-B
Thu 02:33:38 PM 44.9770 -81.5450 221° Southwest 476 548 40,000  Level FlightAware ADS-B
Thu 02:34:14 PM 44.9150 -81.6200 221° Southwest 475 547 40,000  Level FlightAware ADS-B
Thu 02:34:53 PM 44.8490 -81.6990 220° Southwest 474 545 40,000  Level FlightAware ADS-B
Thu 02:35:30 PM 44.7890 -81.7720 221° Southwest 473 544 40,000  Level FlightAware ADS-B
Thu 02:36:10 PM 44.7320 -81.8400 220° Southwest 471 542 40,000  Level FlightAware ADS-B
Thu 02:36:50 PM 44.6630 -81.9120 217° Southwest 472 543 40,000  Level FlightAware ADS-B
Thu 02:37:33 PM 44.5980 -81.9990 224° Southwest 462 532 40,000  Level FlightAware ADS-B
Thu 02:38:13 PM 44.5470 -82.0760 227° Southwest 463 533 40,000  Level FlightAware ADS-B
Thu 02:38:53 PM 44.4710 -82.1950 228° Southwest 463 533 40,000  Level FlightAware ADS-B
Thu 02:39:43 PM 44.4040 -82.3050 230° Southwest 465 535 40,000  Level FlightAware ADS-B
Thu 02:40:35 PM 44.3300 -82.4180 228° Southwest 468 539 40,000  Level FlightAware ADS-B
Thu 02:41:15 PM 44.2820 -82.5020 231° Southwest 466 536 40,000  Level FlightAware ADS-B
Thu 02:41:50 PM 44.2330 -82.5990 235° Southwest 466 536 40,000  Level FlightAware ADS-B
Thu 02:42:35 PM 44.1790 -82.7120 236° Southwest 466 536 40,000  Level FlightAware ADS-B
Thu 02:43:15 PM 44.1310 -82.8130 237° Southwest 470 541 40,000  Level FlightAware ADS-B
Thu 02:43:54 PM 44.0820 -82.9150 236° Southwest 473 544 40,000  Level FlightAware ADS-B
Thu 02:44:43 PM 44.0230 -83.0390 237° Southwest 475 547 40,000  Level FlightAware ADS-B
Thu 02:45:25 PM 43.9720 -83.1430 236° Southwest 473 544 40,000  Level FlightAware ADS-B
Thu 02:46:05 PM 43.9260 -83.2400 237° Southwest 475 547 40,000  Level FlightAware ADS-B
Thu 02:46:40 PM 43.8800 -83.3340 236° Southwest 478 550 40,000  Level FlightAware ADS-B
Thu 02:47:21 PM 43.8290 -83.4390 236° Southwest 482 555 40,000  Level FlightAware ADS-B
Thu 02:48:03 PM 43.7760 -83.5460 236° Southwest 483 556 40,000  Level FlightAware ADS-B
Thu 02:48:40 PM 43.7300 -83.6400 236° Southwest 482 555 40,000  Level FlightAware ADS-B
Thu 02:49:21 PM 43.6790 -83.7430 236° Southwest 479 551 40,000  Level FlightAware ADS-B
Thu 02:49:49 PM 43.6440 -83.8150 236° Southwest 478 550 40,000 -167 Level FlightAware ADS-B
Thu 02:50:33 PM 43.5890 -83.9250 235° Southwest 471 542 39,800 -565 Descending FlightAware ADS-B
Thu 02:51:14 PM 43.5410 -84.0230 236° Southwest 473 544 39,200 -1,215 Descending FlightAware ADS-B
Thu 02:51:52 PM 43.4920 -84.1200 235° Southwest 487 560 38,200 -1,317 Descending FlightAware ADS-B
Thu 02:52:36 PM 43.4360 -84.2330 236° Southwest 493 567 37,400 -1,227 Descending FlightAware ADS-B
Thu 02:53:20 PM 43.3790 -84.3450 235° Southwest 497 572 36,400 -1,341 Descending FlightAware ADS-B
Thu 02:54:01 PM 43.3250 -84.4520 235° Southwest 498 573 35,500 -1,553 Descending FlightAware ADS-B
Thu 02:54:45 PM 43.2650 -84.5700 235° Southwest 502 578 34,200 -1,446 Descending FlightAware ADS-B
Thu 02:55:24 PM 43.2160 -84.6670 235° Southwest 494 568 33,500 -1,412 Descending FlightAware ADS-B
Thu 02:56:10 PM 43.1560 -84.7850 235° Southwest 491 565 32,200 -1,186 Descending FlightAware ADS-B
Thu 02:56:50 PM 43.1040 -84.8860 235° Southwest 486 559 31,800 -857 Descending FlightAware ADS-B
Thu 02:57:34 PM 43.0470 -84.9970 235° Southwest 481 554 31,000 -1,071 Descending FlightAware ADS-B
Thu 02:58:14 PM 42.9960 -85.0960 235° Southwest 475 547 30,300 -975 Descending FlightAware ADS-B
Thu 02:58:54 PM 42.9450 -85.1930 234° Southwest 467 537 29,700 -918 Descending FlightAware ADS-B
Thu 02:59:39 PM 42.8900 -85.3000 235° Southwest 463 533 29,000 -929 Descending FlightAware ADS-B
Thu 03:00:18 PM 42.8410 -85.3930 234° Southwest 458 527 28,400 -900 Descending FlightAware ADS-B
Thu 03:00:59 PM 42.7940 -85.4900 237° Southwest 453 521 27,800 -690 Descending FlightAware ADS-B
Thu 03:01:45 PM 42.7650 -85.6160 253° West 441 507 27,400 -1,465 Descending FlightAware ADS-B
Thu 03:02:25 PM 42.7460 -85.7230 256° West 442 509 25,700 -2,259 Descending FlightAware ADS-B
Thu 03:03:10 PM 42.7250 -85.8400 256° West 427 491 24,200 -2,047 Descending FlightAware ADS-B
Thu 03:03:50 PM 42.7070 -85.9420 257° West 418 481 22,800 -2,203 Descending FlightAware ADS-B
Thu 03:04:29 PM 42.6880 -86.0430 256° West 409 471 21,300 -1,929 Descending FlightAware ADS-B
Thu 03:05:14 PM 42.6680 -86.1510 256° West 402 463 20,100 -918 Descending FlightAware ADS-B
Thu 03:05:54 PM 42.6500 -86.2480 256° West 402 463 20,000 -293 Descending FlightAware ADS-B
Thu 03:06:36 PM 42.6310 -86.3520 256° West 397 457 19,700 -1,186 Descending FlightAware ADS-B
Thu 03:07:20 PM 42.6110 -86.4560 255° West 383 441 18,300 -2,096 Descending FlightAware ADS-B
Thu 03:07:59 PM 42.5940 -86.5480 256° West 375 432 16,800 -2,286 Descending FlightAware ADS-B
Thu 03:08:44 PM 42.5750 -86.6480 256° West 371 427 15,100 -2,207 Descending FlightAware ADS-B
Thu 03:09:26 PM 42.5560 -86.7390 254° West 364 419 13,600 -1,482 Descending FlightAware ADS-B
Thu 03:10:09 PM 42.5340 -86.8250 251° West 361 415 13,000 -2,154 Descending FlightAware ADS-B
Thu 03:10:44 PM 42.5120 -86.9040 249° West 354 407 10,800 -2,114 Descending FlightAware ADS-B
Thu 03:11:37 PM 42.4900 -86.9850 250° West 350 403 9,900 -643 Descending FlightAware ADS-B
Thu 03:12:08 PM 42.4650 -87.0750 249° West 346 398 9,900 -423 Level FlightAware ADS-B
Thu 03:12:48 PM 42.4430 -87.1580 250° West 343 395 9,400 -269 Descending FlightAware ADS-B
Thu 03:13:15 PM 42.4290 -87.2060 248° West 296 341 9,600 -321 Climbing FlightAware ADS-B
Thu 03:13:44 PM 42.4150 -87.2540 248° West 283 326 9,100 -933 Descending FlightAware ADS-B
Thu 03:14:00 PM 42.4080 -87.2830 252° West 276 318 8,900 -643 Descending FlightAware ADS-B
Thu 03:14:12 PM 42.4010 -87.3010 242° Southwest 274 315 8,800  Descending FlightAware ADS-B
Thu 03:14:26 PM 42.3870 -87.3160 218° Southwest 272 313 8,900 200 Climbing FlightAware ADS-B
Thu 03:14:42 PM 42.3680 -87.3220 193° South 272 313 8,900  Level FlightAware ADS-B
Thu 03:15:10 PM 42.3320 -87.3250 184° South 276 318 8,900 -526 Level FlightAware ADS-B
Thu 03:15:39 PM 42.2960 -87.3280 184° South 273 314 8,400 -1,385 Descending FlightAware ADS-B
Thu 03:16:02 PM 42.2650 -87.3300 183° South 270 311 7,700 -1,733 Descending FlightAware ADS-B
Thu 03:16:24 PM 42.2390 -87.3320 183° South 268 308 7,100 -1,038 Descending FlightAware ADS-B
Thu 03:16:54 PM 42.2010 -87.3360 184° South 267 307 6,800 -1,034 Descending FlightAware ADS-B
Thu 03:17:22 PM 42.1670 -87.3390 184° South 268 308 6,100 -964 Descending FlightAware ADS-B
Thu 03:17:50 PM 42.1320 -87.3420 184° South 273 314 5,900 -300 Descending FlightAware ADS-B
Thu 03:18:02 PM 42.1170 -87.3450 188° South 268 308 5,900  Level FlightAware ADS-B
Thu 03:18:30 PM 42.0830 -87.3560 194° South 269 310 5,900  Level FlightAware ADS-B
Thu 03:18:58 PM 42.0490 -87.3680 195° South 268 308 5,900  Level FlightAware ADS-B
Thu 03:19:14 PM 42.0330 -87.3810 211° Southwest 265 305 5,900  Level FlightAware ADS-B
Thu 03:19:26 PM 42.0230 -87.3960 228° Southwest 265 305 5,900  Level FlightAware ADS-B
Thu 03:19:56 PM 42.0030 -87.4380 237° Southwest 264 304 5,900  Level FlightAware ADS-B
Thu 03:20:24 PM 41.9850 -87.4770 238° Southwest 266 306 5,900  Level FlightAware ADS-B
Thu 03:20:38 PM 41.9820 -87.5000 260° West 270 311 5,900 -545 Level FlightAware ADS-B
Thu 03:21:08 PM 41.9830 -87.5490 272° West 261 300 5,500 -1,355 Descending FlightAware ADS-B
Thu 03:21:40 PM 41.9830 -87.6000 270° West 261 300 4,500 -1,500 Descending FlightAware ADS-B
Thu 03:22:04 PM 41.9840 -87.6380 272° West 232 267 4,100 -808 Descending FlightAware ADS-B
Thu 03:22:32 PM 41.9840 -87.6740 270° West 214 246 3,800 -453 Descending FlightAware ADS-B
Thu 03:22:57 PM 41.9840 -87.7050 270° West 212 244 3,700 -158 Descending FlightAware ADS-B
Thu 03:23:10 PM 41.9850 -87.7200 275° West 200 230 3,700 -1,116 Level FlightAware ADS-B
Thu 03:23:40 PM 41.9840 -87.7580 268° West 181 208 2,900 -1,759 Descending FlightAware ADS-B
Thu 03:24:08 PM 41.9840 -87.7880 270° West 170 196 2,000 -1,650 Descending FlightAware ADS-B
Thu 03:24:20 PM 41.9840 -87.8020 270° West 163 188 1,800 -833 Descending FlightAware ADS-B
Thu 03:24:44 PM 41.9840 -87.8230 270° West 143 165 1,500 -769 Descending FlightAware ADS-B
Thu 03:24:59 PM 41.9840 -87.8370 270° West 132 152 1,300 -732 Descending FlightAware ADS-B
Thu 03:25:25 PM 41.9840 -87.8570 270° West 131 151 1,000 -667 Descending FlightAware ADS-B
Thu 03:25:35 PM 41.9840 -87.8650 270° West 132 152 900 -600 Descending FlightAware ADS-B

Login

Don't have an account? Register now (free) for customized features, flight alerts, and more!